Stations météo

Publicité
Lus-La-Croix-Haute, France (7587): Température de l'air & dewpoint: 17.01.2017 01:00:00 - 23.01.2017 01:00:00 (CET)Lus-La-Croix-Haute, France (7587): Vitesse du vent & gusts: 17.01.2017 01:00:00 - 23.01.2017 01:00:00 (CET)Lus-La-Croix-Haute, France (7587): Direction du vent: 17.01.2017 01:00:00 - 23.01.2017 01:00:00 (CET)Lus-La-Croix-Haute, France (7587): Quantités de précipitations: 17.01.2017 01:00:00 - 23.01.2017 01:00:00 (CET)
Date & Time tt [°C] td [°C] ff [km/h] ff [knt] fx [km/h] fx [knt] dd rr [mm]
23.01.2017 01:00:00 - - - - - - - -
23.01.2017 00:00:00 -1,3 -4,5 8 4 11 6 ESE 0,0
22.01.2017 23:00:00 -1,1 -4,8 5 3 15 8 SSE 0,0
22.01.2017 22:00:00 -0,3 -4,0 2 1 15 8 E 0,0
22.01.2017 21:00:00 0,6 -3,7 4 2 15 8 N 0,0
22.01.2017 20:00:00 0,5 -3,2 4 2 13 7 SSE 0,0
22.01.2017 19:00:00 1,2 -3,5 2 1 8 4 W -
22.01.2017 18:00:00 1,6 -3,3 4 2 8 4 N 0,0
22.01.2017 17:00:00 2,6 -5,1 5 3 9 5 ENE 0,0
22.01.2017 16:00:00 4,0 -4,7 2 1 9 5 NW 0,0
22.01.2017 15:00:00 4,4 -5,4 2 1 8 4 S 0,0
22.01.2017 14:00:00 4,5 -5,3 2 1 8 4 W 0,0
22.01.2017 13:00:00 2,4 -5,7 4 2 9 5 ESE -
22.01.2017 12:00:00 1,3 -5,4 2 1 8 4 WNW 0,0
22.01.2017 11:00:00 -1,1 -5,5 2 1 8 4 NNW 0,0
22.01.2017 10:00:00 -3,1 -6,4 2 1 5 3 W 0,0
22.01.2017 09:00:00 -4,5 -7,0 2 1 9 5 N 0,0
22.01.2017 08:00:00 -4,9 -7,2 4 2 5 3 N 0,0
22.01.2017 07:00:00 -5,5 -7,6 2 1 11 6 ESE -
22.01.2017 06:00:00 -5,3 -7,4 4 2 9 5 NNE 0,0
22.01.2017 05:00:00 -6,3 -8,3 5 3 11 6 NE 0,0
22.01.2017 04:00:00 -5,6 -7,4 2 1 8 4 W 0,0
22.01.2017 03:00:00 -5,8 -7,9 5 3 9 5 SE 0,0
22.01.2017 02:00:00 -5,7 -7,7 2 1 8 4 SSE 0,0
22.01.2017 01:00:00 -6,3 -8,0 4 2 8 4 SE -
22.01.2017 00:00:00 -6,0 -7,4 2 1 8 4 ESE 0,0
21.01.2017 23:00:00 -5,9 -7,6 2 1 8 4 NNE 0,0
21.01.2017 22:00:00 -5,1 -7,4 4 2 8 4 NW 0,0
21.01.2017 21:00:00 -4,7 -7,1 2 1 8 4 SW 0,0
21.01.2017 20:00:00 -3,4 -6,5 4 2 8 4 N 0,0
21.01.2017 19:00:00 -2,9 -6,7 2 1 8 4 S -
21.01.2017 18:00:00 -0,8 -7,2 4 2 13 7 WSW 0,0
21.01.2017 17:00:00 2,5 -7,7 2 1 24 13 NE 0,0
21.01.2017 16:00:00 5,5 -8,1 9 5 26 14 NW 0,0
21.01.2017 15:00:00 7,1 -7,7 9 5 21 11 WNW 0,0
21.01.2017 14:00:00 6,6 -6,7 5 3 13 7 S 0,0
21.01.2017 13:00:00 5,7 -5,9 5 3 11 6 SSE -
21.01.2017 12:00:00 4,7 -4,9 4 2 9 5 SSE 0,0
21.01.2017 11:00:00 1,3 -5,6 2 1 8 4 S 0,0
21.01.2017 10:00:00 -2,6 -4,0 2 1 8 4 SSE 0,0
21.01.2017 09:00:00 -6,8 -7,6 2 1 8 4 ESE 0,0
21.01.2017 08:00:00 -7,0 -7,7 4 2 8 4 ESE 0,0
21.01.2017 07:00:00 -6,5 -7,6 2 1 9 5 NE -
21.01.2017 06:00:00 -6,1 -6,9 2 1 5 3 SE 0,0
21.01.2017 05:00:00 -5,9 -6,3 2 1 8 4 ESE 0,0
21.01.2017 04:00:00 -5,5 -6,2 2 1 8 4 E 0,0
21.01.2017 03:00:00 -5,3 -6,4 4 2 15 8 ESE 0,0
21.01.2017 02:00:00 -5,2 -6,2 4 2 8 4 N 0,0
21.01.2017 01:00:00 -5,3 -6,3 2 1 5 3 NNW -
21.01.2017 00:00:00 -5,5 -6,5 2 1 8 4 W 0,0
20.01.2017 23:00:00 -5,7 -6,9 2 1 8 4 SSE 0,0
20.01.2017 22:00:00 -5,2 -6,6 2 1 8 4 NNE 0,0
20.01.2017 21:00:00 -4,9 -6,6 2 1 8 4 N 0,0
20.01.2017 20:00:00 -4,4 -6,1 2 1 5 3 SSW 0,0
20.01.2017 19:00:00 -3,6 -6,2 2 1 5 3 NNW -
20.01.2017 18:00:00 -2,2 -6,8 4 2 11 6 SE 0,0
20.01.2017 17:00:00 1,2 -7,1 4 2 18 10 SE 0,0
20.01.2017 16:00:00 5,6 -6,0 4 2 18 10 WNW 0,0
20.01.2017 15:00:00 5,8 -5,5 4 2 9 5 S 0,0
20.01.2017 14:00:00 5,2 -4,9 5 3 11 6 SSE 0,0
20.01.2017 13:00:00 3,2 -5,2 5 3 9 5 SE -
20.01.2017 12:00:00 0,3 -4,5 2 1 8 4 SSE 0,0
20.01.2017 11:00:00 -4,2 -5,2 2 1 5 3 NNW 0,0
20.01.2017 10:00:00 -6,3 -7,0 4 2 8 4 SSE 0,0
20.01.2017 09:00:00 -10,2 -11,3 2 1 8 4 NNW 0,0
20.01.2017 08:00:00 -10,8 -11,8 2 1 4 2 SE 0,0
20.01.2017 07:00:00 -10,6 -11,8 2 1 4 2 SSE -
20.01.2017 06:00:00 -10,1 -11,0 2 1 5 3 ENE 0,0
20.01.2017 05:00:00 -9,7 -10,5 4 2 8 4 NNE 0,0
20.01.2017 04:00:00 -10,1 -11,3 2 1 8 4 SSE 0,0
20.01.2017 03:00:00 -10,3 -11,6 4 2 8 4 SE 0,0
20.01.2017 02:00:00 -9,3 -10,1 4 2 8 4 N 0,0
20.01.2017 01:00:00 -9,3 -10,4 4 2 9 5 ESE -
20.01.2017 00:00:00 -8,6 -9,3 2 1 8 4 SSE 0,0
19.01.2017 23:00:00 -8,8 -10,0 4 2 8 4 ESE 0,0
19.01.2017 22:00:00 -7,2 -8,0 4 2 8 4 NNE 0,0
19.01.2017 21:00:00 -6,3 -7,7 2 1 5 3 E 0,0
19.01.2017 20:00:00 -5,5 -7,5 4 2 8 4 WNW 0,0
19.01.2017 19:00:00 -4,4 -7,7 4 2 8 4 SSE -
19.01.2017 18:00:00 -3,1 -6,7 2 1 5 3 W 0,0
19.01.2017 17:00:00 0,2 -7,1 2 1 18 10 NE 0,0
19.01.2017 16:00:00 3,4 -6,1 4 2 21 11 E 0,0
19.01.2017 15:00:00 4,6 -6,9 8 4 18 10 WNW 0,0
19.01.2017 14:00:00 3,3 -5,6 4 2 9 5 ENE 0,0
19.01.2017 13:00:00 1,0 -5,7 4 2 9 5 E -
19.01.2017 12:00:00 -1,4 -5,1 2 1 9 5 NNW 0,0
19.01.2017 11:00:00 -5,2 -6,9 4 2 8 4 WNW 0,0
19.01.2017 10:00:00 -8,7 -9,8 2 1 9 5 N 0,0
19.01.2017 09:00:00 -12,4 -13,4 4 2 9 5 NNE 0,0
19.01.2017 08:00:00 -12,8 -14,5 4 2 8 4 NNW 0,0
19.01.2017 07:00:00 -13,4 -15,0 2 1 8 4 SE -
19.01.2017 06:00:00 -13,5 -14,9 2 1 8 4 E 0,0
19.01.2017 05:00:00 -13,8 -15,0 2 1 8 4 SSE 0,0
19.01.2017 04:00:00 -14,0 -15,4 2 1 5 3 NNW 0,0
19.01.2017 03:00:00 -13,5 -14,7 2 1 5 3 SSE 0,0
19.01.2017 02:00:00 -13,3 -14,6 4 2 8 4 N 0,0
19.01.2017 01:00:00 -12,6 -13,6 2 1 8 4 SSW -
19.01.2017 00:00:00 -12,1 -13,5 2 1 5 3 S 0,0
18.01.2017 23:00:00 -12,0 -13,2 4 2 5 3 ESE 0,0
18.01.2017 22:00:00 -11,2 -12,1 4 2 9 5 E 0,0
18.01.2017 21:00:00 -10,9 -12,1 4 2 11 6 E 0,0
18.01.2017 20:00:00 -10,4 -11,7 5 3 11 6 E 0,0
18.01.2017 19:00:00 -9,5 -11,1 5 3 16 9 NE -
18.01.2017 18:00:00 -8,0 -10,5 4 2 22 12 NNE 0,0
18.01.2017 17:00:00 -6,1 -10,3 9 5 29 16 NW 0,0
18.01.2017 16:00:00 -3,3 -9,3 15 8 29 16 NNW 0,0
18.01.2017 15:00:00 -1,9 -8,9 16 9 28 15 NW 0,0
18.01.2017 14:00:00 -0,3 -8,7 4 2 16 9 WNW 0,0
18.01.2017 13:00:00 -3,4 -10,3 5 3 11 6 ENE -
18.01.2017 12:00:00 -5,1 -10,9 4 2 11 6 SE 0,0
18.01.2017 11:00:00 -5,6 -10,6 4 2 11 6 NW 0,0
18.01.2017 10:00:00 -7,6 -10,0 4 2 9 5 ESE 0,0
18.01.2017 09:00:00 -11,6 -13,0 4 2 11 6 E 0,0
18.01.2017 08:00:00 -11,8 -13,7 4 2 13 7 E 0,0
18.01.2017 07:00:00 -11,5 -12,8 4 2 15 8 WNW -
18.01.2017 06:00:00 -11,6 -13,2 4 2 13 7 N 0,0
18.01.2017 05:00:00 -11,4 -12,9 5 3 13 7 E 0,0
18.01.2017 04:00:00 -11,6 -13,3 4 2 11 6 ESE 0,0
18.01.2017 03:00:00 -10,9 -12,5 4 2 11 6 E 0,0
18.01.2017 02:00:00 -10,7 -12,4 5 3 11 6 NNE 0,0
18.01.2017 01:00:00 -9,8 -11,4 4 2 9 5 NNE -
18.01.2017 00:00:00 -8,5 -10,9 4 2 28 15 NNE 0,0
17.01.2017 23:00:00 -7,8 -10,6 8 4 34 18 N 0,0
17.01.2017 22:00:00 -7,6 -10,5 9 5 29 16 NNW 0,0
17.01.2017 21:00:00 -7,4 -10,6 9 5 28 15 NNW 0,0
17.01.2017 20:00:00 -7,4 -10,6 11 6 28 15 NNW 0,0
17.01.2017 19:00:00 -7,5 -11,2 8 4 16 9 N -
17.01.2017 18:00:00 -7,7 -11,7 8 4 26 14 N 0,0
17.01.2017 17:00:00 -7,6 -12,0 8 4 35 19 NNW 0,0
17.01.2017 16:00:00 -5,9 -11,8 15 8 46 25 NNW 0,0
17.01.2017 15:00:00 -5,4 -11,7 16 9 39 21 NNW 0,0
17.01.2017 14:00:00 -5,3 -12,1 13 7 35 19 NNW 0,0
17.01.2017 13:00:00 -6,4 -12,5 9 5 34 18 NNE -
17.01.2017 12:00:00 -6,9 -12,6 9 5 34 18 NNW 0,0
17.01.2017 11:00:00 -7,7 -12,6 15 8 35 19 NNW 0,0
17.01.2017 10:00:00 -7,7 -12,8 8 4 29 16 NNW 0,0
17.01.2017 09:00:00 -9,1 -12,6 11 6 34 18 NNW 0,0
17.01.2017 08:00:00 -9,5 -12,0 13 7 34 18 NW 0,0
17.01.2017 07:00:00 -9,2 -11,4 18 10 35 19 NW -
17.01.2017 06:00:00 -8,9 -11,3 15 8 34 18 NNW 0,0
17.01.2017 05:00:00 -8,5 -11,5 8 4 24 13 NNW 0,0
17.01.2017 04:00:00 -8,3 -11,6 8 4 26 14 N 0,0
17.01.2017 03:00:00 -8,2 -11,7 11 6 34 18 NNW 0,0
17.01.2017 02:00:00 -7,9 -12,1 11 6 41 22 NNW 0,0
17.01.2017 01:00:00 -7,9 -11,4 15 8 37 20 NNW -

tt = Température de l'air
td = dewpoint
ff = Vitesse du vent
fx = gusts
dd = Direction du vent
rr = Quantités de précipitations

stations d'obs. à proximité